createdAt,value
2022-12-29T00:01:12.748Z,98.18
2022-12-29T00:03:30.315Z,99.47
2022-12-29T00:05:47.688Z,98.67
2022-12-29T00:08:05.025Z,98.13
2022-12-29T00:10:22.090Z,97.59
2022-12-29T00:12:39.058Z,98.91
2022-12-29T00:14:56.404Z,99.67
2022-12-29T00:17:13.403Z,98.65
2022-12-29T00:19:31.397Z,100.00
2022-12-29T00:21:48.476Z,99.38
2022-12-29T00:24:05.508Z,99.92
2022-12-29T00:26:22.886Z,98.62
2022-12-29T00:28:40.085Z,98.81
2022-12-29T00:30:57.150Z,99.34
2022-12-29T00:33:15.562Z,99.51
2022-12-29T00:35:32.893Z,99.78
2022-12-29T00:37:50.768Z,100.00
2022-12-29T00:40:07.844Z,99.75
2022-12-29T00:42:25.155Z,98.55
2022-12-29T00:44:43.211Z,98.43
2022-12-29T00:47:00.282Z,98.65
2022-12-29T00:49:21.678Z,98.91
2022-12-29T00:51:38.725Z,98.19
2022-12-29T00:53:55.967Z,98.02
2022-12-29T00:56:13.028Z,98.84
2022-12-29T00:58:30.043Z,99.29
2022-12-29T01:00:47.343Z,99.64
2022-12-29T01:03:04.708Z,100.00
2022-12-29T01:05:21.945Z,100.00
2022-12-29T01:07:38.908Z,100.00
2022-12-29T01:09:57.270Z,100.00
2022-12-29T01:12:14.528Z,99.50
2022-12-29T01:14:31.563Z,99.48
2022-12-29T01:16:48.559Z,100.00
2022-12-29T01:19:05.817Z,99.27
2022-12-29T01:21:22.824Z,99.65
2022-12-29T01:23:39.816Z,99.23
2022-12-29T01:25:57.032Z,99.05
2022-12-29T01:28:14.381Z,99.72
2022-12-29T01:30:31.409Z,98.75
2022-12-29T01:32:48.827Z,99.82
2022-12-29T01:35:05.881Z,100.00
2022-12-29T01:37:24.230Z,100.00
2022-12-29T01:39:42.532Z,100.00
2022-12-29T01:41:59.782Z,99.52
2022-12-29T01:44:17.094Z,99.53
2022-12-29T01:46:35.052Z,99.41
2022-12-29T01:48:52.124Z,99.46
2022-12-29T01:51:10.431Z,100.00
2022-12-29T01:53:27.425Z,100.00
2022-12-29T01:55:44.938Z,99.77
2022-12-29T01:58:02.248Z,100.00
2022-12-29T02:00:19.622Z,100.00
2022-12-29T02:02:37.050Z,100.00
2022-12-29T02:04:57.889Z,100.00
2022-12-29T02:07:17.438Z,99.57
2022-12-29T02:09:34.774Z,99.14
2022-12-29T02:11:51.778Z,98.76
2022-12-29T02:14:10.010Z,99.19
2022-12-29T02:16:27.321Z,99.62
2022-12-29T02:18:45.630Z,99.42
2022-12-29T02:21:02.565Z,99.71
2022-12-29T02:23:20.829Z,99.25
2022-12-29T02:25:37.842Z,99.51
2022-12-29T02:27:54.894Z,99.70
2022-12-29T02:30:12.201Z,99.41
2022-12-29T02:32:29.510Z,99.26
2022-12-29T02:34:46.799Z,99.80
2022-12-29T02:37:04.579Z,100.00
2022-12-29T02:39:21.618Z,100.00
2022-12-29T02:41:38.549Z,100.00
2022-12-29T02:43:56.591Z,100.00
2022-12-29T02:46:13.713Z,100.00
2022-12-29T02:48:32.256Z,99.71
2022-12-29T02:50:49.335Z,100.00
2022-12-29T02:53:06.723Z,100.00
2022-12-29T02:55:24.775Z,100.00
2022-12-29T02:57:41.857Z,100.00
2022-12-29T02:59:59.039Z,99.80
2022-12-29T03:02:16.171Z,99.53
2022-12-29T03:04:34.641Z,99.32
2022-12-29T03:06:51.757Z,100.00
2022-12-29T03:09:19.160Z,98.88
2022-12-29T03:11:36.535Z,98.12
2022-12-29T03:13:54.664Z,98.11
2022-12-29T03:16:12.142Z,96.72
2022-12-29T03:18:29.148Z,97.33
2022-12-29T03:20:46.074Z,97.38
2022-12-29T03:23:03.339Z,95.95
2022-12-29T03:25:20.570Z,95.28
2022-12-29T03:27:37.857Z,94.41
2022-12-29T03:29:57.577Z,94.91
2022-12-29T03:32:14.525Z,94.74
2022-12-29T03:34:31.463Z,95.36
2022-12-29T03:36:49.742Z,94.59
2022-12-29T03:39:07.025Z,92.68
2022-12-29T03:41:25.264Z,94.08
2022-12-29T03:43:42.589Z,94.42
2022-12-29T03:45:59.673Z,94.62
2022-12-29T03:48:16.657Z,95.29
2022-12-29T03:50:35.078Z,95.01
2022-12-29T03:52:52.366Z,95.62
2022-12-29T03:55:09.694Z,93.57
2022-12-29T03:57:26.719Z,94.46
2022-12-29T03:59:43.704Z,95.01
2022-12-29T04:02:00.800Z,94.51
2022-12-29T04:04:18.026Z,94.39
2022-12-29T04:06:35.283Z,93.55
2022-12-29T04:08:52.329Z,93.44
2022-12-29T04:11:09.364Z,92.48
2022-12-29T04:13:26.707Z,92.85
2022-12-29T04:15:43.753Z,93.84
2022-12-29T04:18:01.003Z,94.00
2022-12-29T04:20:17.989Z,93.71
2022-12-29T04:22:34.871Z,95.32
2022-12-29T04:24:51.939Z,94.20
2022-12-29T04:27:10.179Z,95.15
2022-12-29T04:29:27.161Z,95.58
2022-12-29T04:31:44.307Z,95.23
2022-12-29T04:34:02.608Z,96.43
2022-12-29T04:36:19.849Z,95.45
2022-12-29T04:38:37.853Z,95.88
2022-12-29T04:40:55.184Z,96.64
2022-12-29T04:43:12.149Z,96.57
2022-12-29T04:45:29.150Z,96.71
2022-12-29T04:47:46.141Z,96.99
2022-12-29T04:50:03.076Z,97.36
2022-12-29T04:52:20.360Z,96.59
2022-12-29T04:54:38.621Z,96.93
2022-12-29T04:56:55.678Z,97.03
2022-12-29T04:59:12.600Z,94.94
2022-12-29T05:01:29.772Z,93.69
2022-12-29T05:03:47.918Z,94.81
2022-12-29T05:06:04.993Z,94.93
2022-12-29T05:08:27.809Z,94.52
2022-12-29T05:10:45.400Z,95.55
2022-12-29T05:13:02.240Z,95.79
2022-12-29T05:15:19.255Z,95.23
2022-12-29T05:17:36.522Z,95.50
2022-12-29T05:19:53.785Z,96.48
2022-12-29T05:22:10.844Z,95.81
2022-12-29T05:24:27.726Z,95.99
2022-12-29T05:26:44.806Z,94.96
2022-12-29T05:29:01.841Z,95.61
2022-12-29T05:31:18.892Z,93.35
2022-12-29T05:33:35.992Z,94.88
2022-12-29T05:35:53.427Z,95.13
2022-12-29T05:38:10.466Z,93.83
2022-12-29T05:40:28.494Z,93.92
2022-12-29T05:42:45.746Z,94.29
2022-12-29T05:45:02.728Z,95.16
2022-12-29T05:47:20.040Z,95.13
2022-12-29T05:49:37.039Z,96.26
2022-12-29T05:51:55.245Z,94.81
2022-12-29T05:54:12.542Z,95.17
2022-12-29T05:56:29.753Z,95.74
2022-12-29T05:58:46.687Z,95.48
2022-12-29T06:01:03.629Z,96.17
2022-12-29T06:03:21.152Z,97.06
2022-12-29T06:05:38.229Z,97.05
2022-12-29T06:07:56.268Z,96.88
2022-12-29T06:10:13.675Z,97.27
2022-12-29T06:12:30.981Z,96.91
2022-12-29T06:14:48.217Z,96.82
2022-12-29T06:17:05.123Z,97.82
2022-12-29T06:19:22.347Z,97.05
2022-12-29T06:21:39.616Z,98.17
2022-12-29T06:23:56.652Z,97.80
2022-12-29T06:26:13.636Z,97.07
2022-12-29T06:28:30.865Z,96.78
2022-12-29T06:30:48.156Z,97.09
2022-12-29T06:33:05.169Z,97.48
2022-12-29T06:35:23.750Z,96.93
2022-12-29T06:37:40.972Z,97.25
2022-12-29T06:39:58.019Z,97.78
2022-12-29T06:42:15.871Z,97.17
2022-12-29T06:44:33.115Z,97.58
2022-12-29T06:46:51.152Z,96.67
2022-12-29T06:49:08.076Z,96.75
2022-12-29T06:51:25.100Z,95.53
2022-12-29T06:53:42.134Z,96.91
2022-12-29T06:55:59.388Z,97.30
2022-12-29T06:58:16.675Z,96.00
2022-12-29T07:00:34.431Z,95.74
2022-12-29T07:02:52.447Z,95.24
2022-12-29T07:05:09.511Z,95.73
2022-12-29T07:07:26.813Z,96.15
2022-12-29T07:09:43.779Z,95.37
2022-12-29T07:12:00.785Z,96.22
2022-12-29T07:14:17.989Z,97.48
2022-12-29T07:16:35.067Z,96.22
2022-12-29T07:18:52.095Z,96.20
2022-12-29T07:21:09.125Z,95.79
2022-12-29T07:23:26.052Z,96.24
2022-12-29T07:25:43.370Z,97.12
2022-12-29T07:28:00.414Z,97.38
2022-12-29T07:30:17.515Z,97.35
2022-12-29T07:32:34.524Z,96.54
2022-12-29T07:34:52.869Z,97.42
2022-12-29T07:37:10.169Z,95.56
2022-12-29T07:39:27.080Z,96.01
2022-12-29T07:41:45.361Z,96.47
2022-12-29T07:44:02.578Z,96.63
2022-12-29T07:46:56.512Z,96.58
2022-12-29T07:48:57.734Z,95.64
2022-12-29T07:51:14.942Z,95.83
2022-12-29T07:53:32.267Z,95.23
2022-12-29T07:55:49.577Z,96.24
2022-12-29T07:58:06.774Z,96.09
2022-12-29T08:00:23.795Z,96.47
2022-12-29T08:02:41.098Z,96.03
2022-12-29T08:04:59.217Z,95.26
2022-12-29T08:07:16.402Z,95.01
2022-12-29T08:09:33.456Z,94.95
2022-12-29T08:11:50.766Z,96.34
2022-12-29T08:14:08.075Z,95.22
2022-12-29T08:16:25.192Z,95.50
2022-12-29T08:18:42.773Z,95.15
2022-12-29T08:21:00.069Z,95.59
2022-12-29T08:23:18.105Z,95.62
2022-12-29T08:25:35.073Z,95.76
2022-12-29T08:27:52.099Z,96.07
2022-12-29T08:30:09.164Z,97.10
2022-12-29T08:32:26.343Z,93.95
2022-12-29T08:34:43.777Z,93.64
2022-12-29T08:37:01.080Z,92.78
2022-12-29T08:39:18.160Z,91.63
2022-12-29T08:41:35.236Z,91.89
2022-12-29T08:43:52.303Z,92.39
2022-12-29T08:46:09.568Z,90.59
2022-12-29T08:48:26.954Z,88.99
2022-12-29T08:50:43.931Z,88.78
2022-12-29T08:53:00.933Z,89.63
2022-12-29T08:55:17.962Z,89.94
2022-12-29T08:57:34.941Z,88.62
2022-12-29T08:59:52.926Z,88.41
2022-12-29T09:02:10.042Z,89.50
2022-12-29T09:04:27.550Z,88.42
2022-12-29T09:06:44.730Z,88.03
2022-12-29T09:09:01.854Z,87.50
2022-12-29T09:11:18.856Z,88.70
2022-12-29T09:13:36.846Z,85.47
2022-12-29T09:15:53.816Z,85.76
2022-12-29T09:18:13.653Z,84.21
2022-12-29T09:20:33.347Z,85.01
2022-12-29T09:22:50.605Z,84.99
2022-12-29T09:25:07.625Z,85.00
2022-12-29T09:27:25.623Z,84.71
2022-12-29T09:29:42.651Z,85.38
2022-12-29T09:31:59.637Z,85.20
2022-12-29T09:34:16.565Z,85.56
2022-12-29T09:36:33.531Z,84.66
2022-12-29T09:38:50.785Z,85.47
2022-12-29T09:41:08.760Z,85.53
2022-12-29T09:43:25.794Z,85.08
2022-12-29T09:45:42.796Z,85.34
2022-12-29T09:48:01.315Z,85.24
2022-12-29T09:50:20.928Z,84.71
2022-12-29T09:52:37.833Z,83.36
2022-12-29T09:55:00.878Z,82.44
2022-12-29T09:57:20.121Z,81.35
2022-12-29T09:59:37.321Z,80.88
2022-12-29T10:01:54.532Z,80.62
2022-12-29T10:04:11.740Z,80.89
2022-12-29T10:06:28.751Z,80.12
2022-12-29T10:08:45.791Z,81.62
2022-12-29T10:11:02.726Z,81.28
2022-12-29T10:13:19.693Z,81.56
2022-12-29T10:15:36.685Z,81.24
2022-12-29T10:17:53.662Z,81.21
2022-12-29T10:20:10.761Z,81.06
2022-12-29T10:22:27.784Z,81.93
2022-12-29T10:24:44.808Z,81.99
2022-12-29T10:27:01.750Z,81.73
2022-12-29T10:29:19.687Z,80.65
2022-12-29T10:31:36.720Z,80.70
2022-12-29T10:33:53.800Z,80.56
2022-12-29T10:36:10.834Z,80.73
2022-12-29T10:38:28.102Z,80.62
2022-12-29T10:40:45.359Z,80.26
2022-12-29T10:43:02.394Z,80.09
2022-12-29T10:45:20.471Z,79.38
2022-12-29T10:47:37.756Z,79.48
2022-12-29T10:49:54.980Z,80.08
2022-12-29T10:52:12.210Z,80.42
2022-12-29T10:54:29.489Z,79.34
2022-12-29T10:56:47.526Z,78.69
2022-12-29T10:59:04.780Z,79.81
2022-12-29T11:01:21.795Z,77.47
2022-12-29T11:03:38.793Z,77.43
2022-12-29T11:05:56.082Z,78.28
2022-12-29T11:08:13.094Z,76.89
2022-12-29T11:10:30.125Z,78.14
2022-12-29T11:12:47.357Z,78.25
2022-12-29T11:15:04.791Z,77.83
2022-12-29T11:17:22.069Z,75.03
2022-12-29T11:19:41.156Z,74.43
2022-12-29T11:21:59.448Z,75.76
2022-12-29T11:24:16.737Z,75.80
2022-12-29T11:26:34.715Z,74.84
2022-12-29T11:28:52.108Z,75.97
2022-12-29T11:31:09.152Z,75.08
2022-12-29T11:33:26.469Z,74.58
2022-12-29T11:35:43.461Z,75.11
2022-12-29T11:38:00.756Z,74.60
2022-12-29T11:40:17.818Z,75.86
2022-12-29T11:42:35.152Z,75.90
2022-12-29T11:44:52.386Z,75.23
2022-12-29T11:47:09.691Z,76.06
2022-12-29T11:49:26.962Z,77.45
2022-12-29T11:51:44.126Z,77.39
2022-12-29T11:54:01.340Z,78.11
2022-12-29T11:56:19.236Z,78.34
2022-12-29T11:58:36.302Z,79.15
2022-12-29T12:00:53.647Z,79.58
2022-12-29T12:03:10.776Z,80.40
2022-12-29T12:05:27.776Z,81.04
2022-12-29T12:07:44.708Z,81.05
2022-12-29T12:10:07.109Z,80.83
2022-12-29T12:12:24.810Z,78.89
2022-12-29T12:14:41.868Z,79.07
2022-12-29T12:16:59.337Z,80.25
2022-12-29T12:19:17.266Z,80.54
2022-12-29T12:21:34.544Z,78.37
2022-12-29T12:23:54.606Z,79.35
2022-12-29T12:26:12.635Z,78.85
2022-12-29T12:28:36.303Z,78.62
2022-12-29T12:30:54.749Z,78.36
2022-12-29T12:33:11.812Z,77.60
2022-12-29T12:35:28.808Z,78.69
2022-12-29T12:37:46.163Z,79.02
2022-12-29T12:40:03.481Z,77.44
2022-12-29T12:42:20.831Z,77.18
2022-12-29T12:44:37.860Z,77.51
2022-12-29T12:46:55.886Z,75.54
2022-12-29T12:49:13.278Z,75.33
2022-12-29T12:51:30.259Z,76.01
2022-12-29T12:53:47.457Z,75.85
2022-12-29T12:56:05.489Z,75.25
2022-12-29T12:58:22.442Z,74.23
2022-12-29T13:00:39.465Z,75.71
2022-12-29T13:02:56.613Z,76.87
2022-12-29T13:05:13.957Z,75.93
2022-12-29T13:07:31.883Z,77.02
2022-12-29T13:09:49.126Z,77.81
2022-12-29T13:12:07.214Z,78.12
2022-12-29T13:14:25.425Z,78.13
2022-12-29T13:16:42.372Z,78.20
2022-12-29T13:18:59.666Z,76.61
2022-12-29T13:21:16.700Z,75.88
2022-12-29T13:23:33.722Z,74.44
2022-12-29T13:25:50.705Z,73.81
2022-12-29T13:28:07.635Z,74.28
2022-12-29T13:30:24.668Z,73.98
2022-12-29T13:32:41.581Z,73.89
2022-12-29T13:34:58.548Z,72.68
2022-12-29T13:37:15.556Z,73.12
2022-12-29T13:39:34.036Z,74.15
2022-12-29T13:41:51.121Z,74.68
2022-12-29T13:44:08.097Z,73.77
2022-12-29T13:46:25.388Z,73.88
2022-12-29T13:48:42.542Z,74.38
2022-12-29T13:50:59.858Z,74.23
2022-12-29T13:53:17.158Z,74.35
2022-12-29T13:55:34.431Z,75.20
2022-12-29T13:57:51.668Z,74.32
2022-12-29T14:00:08.962Z,73.90
2022-12-29T14:02:26.195Z,74.52
2022-12-29T14:04:44.301Z,73.25
2022-12-29T14:07:01.544Z,74.99
2022-12-29T14:09:19.846Z,72.82
2022-12-29T14:11:36.852Z,73.34
2022-12-29T14:13:53.894Z,72.84
2022-12-29T14:16:10.976Z,73.53
2022-12-29T14:18:29.057Z,73.95
2022-12-29T14:20:46.098Z,73.63
2022-12-29T14:23:03.036Z,72.74
2022-12-29T14:25:20.083Z,72.80
2022-12-29T14:27:37.101Z,74.29
2022-12-29T14:29:55.189Z,73.69
2022-12-29T14:32:12.239Z,74.86
2022-12-29T14:34:29.249Z,75.21
2022-12-29T14:36:46.360Z,75.14
2022-12-29T14:39:04.444Z,75.57
2022-12-29T14:41:21.648Z,75.78
2022-12-29T14:43:39.861Z,75.77
2022-12-29T14:45:57.197Z,75.71
2022-12-29T14:48:14.233Z,76.38
2022-12-29T14:50:31.160Z,76.80
2022-12-29T14:52:49.402Z,76.57
2022-12-29T14:55:06.478Z,75.12
2022-12-29T14:57:23.392Z,76.08
2022-12-29T14:59:40.362Z,76.77
2022-12-29T15:01:57.380Z,76.69
2022-12-29T15:04:14.563Z,77.32
2022-12-29T15:06:31.829Z,78.20
2022-12-29T15:08:49.067Z,77.77
2022-12-29T15:11:06.144Z,78.19
2022-12-29T15:13:23.212Z,79.27
2022-12-29T15:15:40.256Z,79.15
2022-12-29T15:17:57.196Z,79.65
2022-12-29T15:20:14.437Z,79.52
2022-12-29T15:22:31.499Z,78.97
2022-12-29T15:24:48.486Z,77.98
2022-12-29T15:27:05.523Z,78.10
2022-12-29T15:29:22.857Z,77.46
2022-12-29T15:31:40.287Z,78.95
2022-12-29T15:33:57.594Z,78.13
2022-12-29T15:36:14.874Z,81.13
2022-12-29T15:38:38.628Z,79.49
2022-12-29T15:40:57.253Z,80.18
2022-12-29T15:43:14.343Z,80.09
2022-12-29T15:45:31.424Z,82.53
2022-12-29T15:47:49.415Z,81.46
2022-12-29T15:50:06.434Z,82.90
2022-12-29T15:52:23.719Z,83.14
2022-12-29T15:54:40.788Z,83.79
2022-12-29T15:56:57.831Z,84.15
2022-12-29T15:59:14.888Z,85.54
2022-12-29T16:01:31.858Z,85.61
2022-12-29T16:03:48.993Z,84.75
2022-12-29T16:06:06.373Z,85.76
2022-12-29T16:08:23.787Z,86.45
2022-12-29T16:10:40.827Z,85.37
2022-12-29T16:12:57.853Z,85.99
2022-12-29T16:15:14.916Z,87.00
2022-12-29T16:17:32.920Z,87.36
2022-12-29T16:19:49.859Z,86.98
2022-12-29T16:22:07.855Z,86.91
2022-12-29T16:24:25.126Z,87.97
2022-12-29T16:26:42.162Z,87.97
2022-12-29T16:28:59.153Z,88.78
2022-12-29T16:31:16.474Z,87.93
2022-12-29T16:33:34.766Z,88.11
2022-12-29T16:35:52.043Z,89.42
2022-12-29T16:38:10.090Z,88.57
2022-12-29T16:40:27.337Z,89.55
2022-12-29T16:42:50.843Z,88.83
2022-12-29T16:45:09.847Z,89.80
2022-12-29T16:47:26.780Z,89.00
2022-12-29T16:49:43.689Z,89.79
2022-12-29T16:52:01.952Z,89.72
2022-12-29T16:54:19.229Z,89.28
2022-12-29T16:56:36.461Z,89.20
2022-12-29T16:58:54.538Z,89.89
2022-12-29T17:01:11.909Z,89.79
2022-12-29T17:03:29.930Z,89.54
2022-12-29T17:05:50.280Z,89.70
2022-12-29T17:08:11.356Z,90.21
2022-12-29T17:10:28.383Z,89.63
2022-12-29T17:12:45.400Z,90.16
2022-12-29T17:15:03.510Z,90.42
2022-12-29T17:17:22.344Z,90.49
2022-12-29T17:19:39.574Z,90.24
2022-12-29T17:21:56.899Z,90.99
2022-12-29T17:24:14.017Z,90.74
2022-12-29T17:26:31.429Z,90.32
2022-12-29T17:28:48.763Z,90.62
2022-12-29T17:31:05.837Z,90.92
2022-12-29T17:33:22.954Z,91.14
2022-12-29T17:35:40.469Z,90.79
2022-12-29T17:37:58.851Z,90.92
2022-12-29T17:40:16.099Z,91.28
2022-12-29T17:42:33.174Z,91.21
2022-12-29T17:44:50.060Z,91.28
2022-12-29T17:47:08.024Z,91.06
2022-12-29T17:49:25.455Z,91.73
2022-12-29T17:51:43.720Z,91.00
2022-12-29T17:54:00.723Z,91.63
2022-12-29T17:56:17.698Z,91.69
2022-12-29T17:58:35.057Z,92.20
2022-12-29T18:00:52.145Z,91.87
2022-12-29T18:03:09.618Z,92.64
2022-12-29T18:05:26.727Z,91.95
2022-12-29T18:07:43.702Z,91.86
2022-12-29T18:10:00.735Z,92.29
2022-12-29T18:12:17.836Z,92.51
2022-12-29T18:14:35.278Z,92.31
2022-12-29T18:16:52.472Z,92.04
2022-12-29T18:19:09.508Z,92.35
2022-12-29T18:21:26.445Z,92.38
2022-12-29T18:23:43.498Z,92.40
2022-12-29T18:26:00.566Z,92.33
2022-12-29T18:28:17.926Z,92.42
2022-12-29T18:30:34.815Z,92.50
2022-12-29T18:32:51.856Z,92.40
2022-12-29T18:35:08.900Z,92.63
2022-12-29T18:37:26.842Z,92.38
2022-12-29T18:39:45.048Z,92.06
2022-12-29T18:42:02.993Z,92.80
2022-12-29T18:44:20.071Z,92.98
2022-12-29T18:46:38.097Z,92.50
2022-12-29T18:48:55.401Z,92.65
2022-12-29T18:51:12.348Z,93.16
2022-12-29T18:53:29.454Z,92.67
2022-12-29T18:55:46.702Z,92.98
2022-12-29T18:58:03.593Z,93.25
2022-12-29T19:00:20.508Z,93.17
2022-12-29T19:02:37.838Z,93.50
2022-12-29T19:05:02.068Z,93.57
2022-12-29T19:07:23.003Z,93.56
2022-12-29T19:09:40.176Z,93.48
2022-12-29T19:11:57.141Z,93.37
2022-12-29T19:14:14.013Z,93.34
2022-12-29T19:16:31.018Z,93.59
2022-12-29T19:19:00.972Z,93.55
2022-12-29T19:21:24.640Z,93.81
2022-12-29T19:23:42.900Z,93.78
2022-12-29T19:25:59.940Z,94.08
2022-12-29T19:28:16.829Z,93.60
2022-12-29T19:30:34.181Z,93.38
2022-12-29T19:32:51.437Z,93.51
2022-12-29T19:35:08.478Z,94.08
2022-12-29T19:37:25.469Z,93.82
2022-12-29T19:39:42.630Z,93.48
2022-12-29T19:42:05.112Z,93.93
2022-12-29T19:44:22.814Z,94.01
2022-12-29T19:46:40.179Z,93.86
2022-12-29T19:48:58.471Z,94.27
2022-12-29T19:51:15.490Z,94.55
2022-12-29T19:53:38.088Z,94.63
2022-12-29T19:55:55.342Z,94.87
2022-12-29T19:58:12.324Z,94.24
2022-12-29T20:00:29.404Z,94.15
2022-12-29T20:02:46.739Z,93.94
2022-12-29T20:05:03.865Z,93.86
2022-12-29T20:07:20.945Z,93.14
2022-12-29T20:09:37.810Z,93.72
2022-12-29T20:11:55.637Z,92.97
2022-12-29T20:14:12.516Z,92.25
2022-12-29T20:16:29.983Z,91.79
2022-12-29T20:18:47.070Z,92.22
2022-12-29T20:21:05.196Z,91.35
2022-12-29T20:23:23.579Z,91.74
2022-12-29T20:25:46.365Z,92.61
2022-12-29T20:28:03.945Z,92.58
2022-12-29T20:30:22.160Z,92.87
2022-12-29T20:32:39.236Z,92.76
2022-12-29T20:34:57.167Z,93.08
2022-12-29T20:37:14.447Z,93.73
2022-12-29T20:39:31.755Z,93.53
2022-12-29T20:41:48.819Z,93.71
2022-12-29T20:44:06.183Z,93.86
2022-12-29T20:46:29.907Z,94.11
2022-12-29T20:48:50.883Z,94.07
2022-12-29T20:51:07.924Z,93.86
2022-12-29T20:53:26.332Z,94.00
2022-12-29T20:55:43.242Z,94.42
2022-12-29T21:00:37.158Z,94.22
2022-12-29T21:02:55.247Z,92.92
2022-12-29T21:05:23.780Z,91.61
2022-12-29T21:07:41.892Z,91.55
2022-12-29T21:09:59.170Z,91.09
2022-12-29T21:12:16.211Z,90.62
2022-12-29T21:14:33.175Z,90.77
2022-12-29T21:16:50.256Z,90.40
2022-12-29T21:19:07.506Z,89.28
2022-12-29T21:21:25.778Z,88.51
2022-12-29T21:23:42.987Z,88.78
2022-12-29T21:25:59.995Z,88.60
2022-12-29T21:28:16.915Z,89.07
2022-12-29T21:30:34.266Z,88.96
2022-12-29T21:32:51.641Z,89.30
2022-12-29T21:35:08.642Z,89.44
2022-12-29T21:37:25.584Z,89.51
2022-12-29T21:39:42.842Z,89.98
2022-12-29T21:42:00.840Z,89.70
2022-12-29T21:44:17.831Z,89.45
2022-12-29T21:46:35.143Z,89.77
2022-12-29T21:48:52.218Z,90.41
2022-12-29T21:51:09.109Z,89.98
2022-12-29T21:53:26.152Z,90.73
2022-12-29T21:55:44.046Z,91.01
2022-12-29T21:58:01.114Z,91.46
2022-12-29T22:00:18.114Z,91.45
2022-12-29T22:02:35.200Z,91.50
2022-12-29T22:04:52.684Z,91.58
2022-12-29T22:07:09.980Z,91.31
2022-12-29T22:09:26.966Z,91.68
2022-12-29T22:11:43.876Z,91.41
2022-12-29T22:14:00.779Z,91.62
2022-12-29T22:16:18.974Z,91.73
2022-12-29T22:18:36.148Z,91.95
2022-12-29T22:20:53.504Z,92.29
2022-12-29T22:23:11.808Z,92.05
2022-12-29T22:25:29.018Z,92.01
2022-12-29T22:27:45.940Z,92.90
2022-12-29T22:30:03.033Z,92.24
2022-12-29T22:32:22.025Z,93.07
2022-12-29T22:34:40.050Z,93.19
2022-12-29T22:36:58.100Z,92.92
2022-12-29T22:39:15.088Z,93.34
2022-12-29T22:41:32.316Z,93.16
2022-12-29T22:43:49.705Z,93.60
2022-12-29T22:46:07.063Z,93.75
2022-12-29T22:48:24.118Z,94.17
2022-12-29T22:50:42.009Z,94.38
2022-12-29T22:52:59.206Z,94.56
2022-12-29T22:55:16.286Z,94.22
2022-12-29T22:57:33.169Z,94.49
2022-12-29T22:59:51.239Z,94.31
2022-12-29T23:02:09.291Z,94.75
2022-12-29T23:05:01.656Z,94.53
2022-12-29T23:07:03.365Z,94.64
2022-12-29T23:09:20.354Z,94.58
2022-12-29T23:11:37.347Z,94.39
2022-12-29T23:13:55.360Z,94.09
2022-12-29T23:16:12.420Z,94.05
2022-12-29T23:18:29.506Z,94.25
2022-12-29T23:20:46.777Z,93.67
2022-12-29T23:23:03.940Z,93.90
2022-12-29T23:25:21.000Z,93.59
2022-12-29T23:27:38.111Z,93.38
2022-12-29T23:29:55.356Z,93.17
2022-12-29T23:32:12.332Z,92.75
2022-12-29T23:34:29.272Z,93.20
2022-12-29T23:36:47.475Z,93.48
2022-12-29T23:39:05.447Z,92.83
2022-12-29T23:41:22.654Z,93.55
2022-12-29T23:43:42.716Z,93.66
2022-12-29T23:45:59.987Z,93.37
2022-12-29T23:48:17.023Z,93.43
2022-12-29T23:50:35.161Z,92.68
2022-12-29T23:52:53.332Z,93.20
2022-12-29T23:55:10.343Z,93.48
2022-12-29T23:57:30.166Z,93.44
2022-12-29T23:59:47.239Z,93.23
